Wilson Gaeta — 8PTS — position and weather

sailwx.info

Track history (hours):
 
Tides and Currents Weather Stations Pressure Air Temp Water Temp Dewpoint Dewpoint Depression Visibility Wind Speed Wind Dir Waves Ship Positions

Wilson Gaeta

Last reported at 2014-Sep-30 15:33 UTC. Time now 2014-Sep-30 15:55 UTC.
Position N 52°08' E 003°29'.

Length 88 m; draft 3.9 m.

Type: Cargo ship. MMSI: 314237000.

Date/timePositionNaut miles runAvg speedWind from/ knotsBaromVisibWave heightAir tempDewpointWater temp
2014-Sep-30 15:33N 52°08' E 003°29'7 7.1
2014-Sep-30 14:33N 52°12' E 003°19'61 5.5
2014-Sep-30 03:32N 52°45' E 001°54'6 6.1
2014-Sep-30 02:33N 52°48' E 001°46'7 7.0
2014-Sep-30 01:33N 52°53' E 001°37'8 7.8
2014-Sep-30 00:33N 52°58' E 001°27'8 8.4
2014-Sep-29 23:33N 53°03' E 001°16'21 8.7
2014-Sep-29 21:10N 53°13' E 000°46'8 8.4
2014-Sep-29 20:11N 53°19' E 000°38'6 8.3
2014-Sep-29 19:31N 53°24' E 000°32'8 8.3
2014-Sep-29 18:33N 53°29' E 000°22'8 8.4
2014-Sep-29 17:33N 53°33' E 000°09'8 8.0
2014-Sep-29 16:33N 53°36' W 000°03'5 5.3
2014-Sep-29 15:33N 53°38' W 000°11'0 0.1
2014-Sep-29 14:29N 53°38' W 000°11'0 0.0
2014-Sep-29 13:32N 53°38' W 000°11'0 0.0
2014-Sep-29 12:32N 53°38' W 000°11'0 0.0
2014-Sep-29 11:32N 53°38' W 000°11'0 0.0
2014-Sep-29 10:32N 53°38' W 000°11'0 0.0
2014-Sep-29 09:29N 53°38' W 000°11'0 0.0
2014-Sep-29 08:20N 53°38' W 000°11'0 0.0
2014-Sep-29 07:32N 53°38' W 000°11'0 0.0
2014-Sep-29 06:32N 53°38' W 000°11'0 0.0
2014-Sep-29 05:32N 53°38' W 000°11'0 0.0
2014-Sep-29 04:29N 53°38' W 000°11'0 0.0
2014-Sep-29 03:32N 53°38' W 000°11'0 0.0
2014-Sep-29 02:32N 53°38' W 000°11'0 0.0
2014-Sep-29 01:32N 53°38' W 000°11'0 0.0
2014-Sep-29 00:29N 53°38' W 000°11'0 0.0
2014-Sep-28 23:32N 53°38' W 000°11'0 0.0
2014-Sep-28 22:32N 53°38' W 000°11'0 0.0
2014-Sep-28 21:32N 53°38' W 000°11'0 0.0
2014-Sep-28 20:32N 53°38' W 000°11'0 0.0
2014-Sep-28 19:32N 53°38' W 000°11'0 0.0
2014-Sep-28 18:32N 53°38' W 000°11'0 0.0
2014-Sep-28 17:26N 53°38' W 000°11'0 0.0
2014-Sep-28 16:26N 53°38' W 000°11'0 0.0
2014-Sep-28 15:29N 53°38' W 000°11'0 0.0
2014-Sep-28 14:26N 53°38' W 000°11'0 0.0
2014-Sep-28 13:26N 53°38' W 000°11'0 0.0
2014-Sep-28 12:29N 53°38' W 000°11'0 0.0
2014-Sep-28 11:32N 53°38' W 000°11'0 0.0
2014-Sep-28 10:29N 53°38' W 000°11'0 0.0
2014-Sep-28 09:32N 53°38' W 000°11'0 0.0
2014-Sep-28 08:32N 53°38' W 000°11'0 0.0
2014-Sep-28 07:29N 53°38' W 000°11'0 0.0
2014-Sep-28 06:32N 53°38' W 000°11'0 0.0
2014-Sep-28 05:32N 53°38' W 000°11'0 0.0
2014-Sep-28 04:26N 53°38' W 000°11'0 0.0
2014-Sep-28 03:26N 53°38' W 000°11'0 0.0
2014-Sep-28 02:26N 53°38' W 000°11'0 0.0
2014-Sep-28 01:32N 53°38' W 000°11'0 0.0
2014-Sep-28 00:32N 53°38' W 000°11'0 0.0
2014-Sep-27 23:32N 53°38' W 000°11'0 0.0
2014-Sep-27 22:29N 53°38' W 000°11'0 0.0
2014-Sep-27 21:32N 53°38' W 000°11'0 0.0
2014-Sep-27 20:29N 53°38' W 000°11'0 0.0
2014-Sep-27 19:32N 53°38' W 000°11'0 0.0
2014-Sep-27 18:32N 53°38' W 000°11'0 0.0
2014-Sep-27 17:32N 53°38' W 000°11'0 0.0
2014-Sep-27 16:32N 53°38' W 000°11'0 0.0
2014-Sep-27 15:32N 53°38' W 000°11'0 0.0
2014-Sep-27 14:29N 53°38' W 000°11'0 0.0
2014-Sep-27 13:26N 53°38' W 000°11'0 0.0
2014-Sep-27 12:32N 53°38' W 000°11'0 0.0
2014-Sep-27 11:32N 53°38' W 000°11'0 0.0
2014-Sep-27 10:29N 53°38' W 000°11'0 0.1
2014-Sep-27 09:33N 53°38' W 000°11'3 3.0
2014-Sep-27 08:33N 53°37' W 000°06'9 8.8
2014-Sep-27 07:34N 53°34' E 000°07'9 9.0
2014-Sep-27 06:33N 53°30' E 000°21'10 9.7
2014-Sep-27 05:33N 53°23' E 000°33'10 9.8
2014-Sep-27 04:31N 53°15' E 000°43'1510.4
2014-Sep-27 03:07N 53°06' E 001°02'611.2
2014-Sep-27 02:33N 53°04' E 001°11'1111.2
2014-Sep-27 01:34N 52°58' E 001°27'1111.1
2014-Sep-27 00:34N 52°51' E 001°41'9 9.3
2014-Sep-26 23:33N 52°45' E 001°54'7 6.6
2014-Sep-26 22:33N 52°39' E 001°55'5 5.5
2014-Sep-26 21:33N 52°33' E 001°53'5 5.4
2014-Sep-26 20:33N 52°28' E 001°51'6 6.0
2014-Sep-26 19:33N 52°22' E 001°49'7 7.5
2014-Sep-26 18:33N 52°15' E 001°46'9 8.6
2014-Sep-26 17:33N 52°07' E 001°43'8 8.4
2014-Sep-26 16:33N 51°60' E 001°36'9 9.1
2014-Sep-26 15:33N 51°56' E 001°22'8 8.0
2014-Sep-26 14:33N 52°00' E 001°12'2 2.2
2014-Sep-26 13:29N 52°02' E 001°09'0 0.0
2014-Sep-26 12:32N 52°02' E 001°09'0 0.0
2014-Sep-26 11:32N 52°02' E 001°09'0 0.0
2014-Sep-26 10:32N 52°02' E 001°09'0 0.0
2014-Sep-26 09:32N 52°02' E 001°09'0 0.0
2014-Sep-26 08:32N 52°02' E 001°09'0 0.0
2014-Sep-26 07:20N 52°02' E 001°09'0 0.0
2014-Sep-26 06:08N 52°02' E 001°09'1 2.2
2014-Sep-26 05:33N 52°01' E 001°10'7 7.1
2014-Sep-26 04:33N 51°56' E 001°19'8 7.7
2014-Sep-26 03:33N 51°57' E 001°31'6 6.2
2014-Sep-26 02:33N 52°02' E 001°38'7 7.2
2014-Sep-26 01:33N 52°03' E 001°49'8 8.2
2014-Sep-26 00:34N 52°03' E 002°03'58 9.2
2014-Sep-25 18:16N 52°03' E 003°36'7 9.2
2014-Sep-25 17:33N 52°03' E 003°47'7 7.1
2014-Sep-25 16:34N 52°02' E 003°58'9 9.2
2014-Sep-25 15:33N 51°57' E 004°11'7 7.2
2014-Sep-25 14:33N 51°54' E 004°22'2 2.0
2014-Sep-25 13:33N 51°54' E 004°25'0 0.0
2014-Sep-25 12:30N 51°54' E 004°25'0 0.0
2014-Sep-25 11:33N 51°54' E 004°25'0 0.0
2014-Sep-25 10:33N 51°54' E 004°25'0 0.0
2014-Sep-25 09:33N 51°54' E 004°25'0 0.0
2014-Sep-25 08:33N 51°54' E 004°25'0 0.0
2014-Sep-25 07:33N 51°54' E 004°25'0 0.0
2014-Sep-25 06:33N 51°54' E 004°25'0 0.0
2014-Sep-25 05:33N 51°54' E 004°25'0 0.0
2014-Sep-25 04:33N 51°54' E 004°25'0 0.0
2014-Sep-25 03:33N 51°54' E 004°25'0 0.0
2014-Sep-25 02:33N 51°54' E 004°25'0 0.0
2014-Sep-25 01:33N 51°54' E 004°25'0 0.0
2014-Sep-25 00:33N 51°54' E 004°25'0 0.0
2014-Sep-24 23:33N 51°54' E 004°25'0 0.0
2014-Sep-24 22:33N 51°54' E 004°25'0 0.0
2014-Sep-24 21:33N 51°54' E 004°25'0 0.2
2014-Sep-24 20:33N 51°55' E 004°25'163163.4
2014-Sep-24 19:33N 51°55' E 000°00'163163.3
2014-Sep-24 18:33N 51°55' E 004°25'0 0.0
2014-Sep-24 17:33N 51°55' E 004°25'0 0.0
2014-Sep-24 16:33N 51°55' E 004°25'0 0.0
2014-Sep-24 15:33N 51°55' E 004°25'0 0.0
2014-Sep-24 14:33N 51°55' E 004°25'7 6.8
2014-Sep-24 13:33N 51°55' E 004°14'1010.2
2014-Sep-24 12:33N 51°60' E 003°59'10 9.7
2014-Sep-24 11:33N 52°02' E 003°44'79 9.8
2014-Sep-24 03:31N 52°44' E 001°55'8 8.2
2014-Sep-24 02:33N 52°49' E 001°45'8 7.7
2014-Sep-24 01:33N 52°54' E 001°35'8 7.6
2014-Sep-24 00:33N 52°59' E 001°25'8 8.2
2014-Sep-23 23:33N 53°03' E 001°13'  
Track history (hours):
 
Tides and Currents Weather Stations Pressure Air Temp Water Temp Dewpoint Dewpoint Depression Visibility Wind Speed Wind Dir Waves Ship Positions

Wilson Gaeta

Last reported at 2014-Sep-30 15:33 UTC. Time now 2014-Sep-30 15:55 UTC.
Position N 52°08' E 003°29'.

Length 88 m; draft 3.9 m.

Type: Cargo ship. MMSI: 314237000.

Date/timePositionNaut miles runAvg speedWind from/ knotsBaromVisibWave heightAir tempDewpointWater temp
2014-Sep-30 15:33N 52°08' E 003°29'7 7.1
2014-Sep-30 14:33N 52°12' E 003°19'61 5.5
2014-Sep-30 03:32N 52°45' E 001°54'6 6.1
2014-Sep-30 02:33N 52°48' E 001°46'7 7.0
2014-Sep-30 01:33N 52°53' E 001°37'8 7.8
2014-Sep-30 00:33N 52°58' E 001°27'8 8.4
2014-Sep-29 23:33N 53°03' E 001°16'21 8.7
2014-Sep-29 21:10N 53°13' E 000°46'8 8.4
2014-Sep-29 20:11N 53°19' E 000°38'6 8.3
2014-Sep-29 19:31N 53°24' E 000°32'8 8.3
2014-Sep-29 18:33N 53°29' E 000°22'8 8.4
2014-Sep-29 17:33N 53°33' E 000°09'8 8.0
2014-Sep-29 16:33N 53°36' W 000°03'5 5.3
2014-Sep-29 15:33N 53°38' W 000°11'0 0.1
2014-Sep-29 14:29N 53°38' W 000°11'0 0.0
2014-Sep-29 13:32N 53°38' W 000°11'0 0.0
2014-Sep-29 12:32N 53°38' W 000°11'0 0.0
2014-Sep-29 11:32N 53°38' W 000°11'0 0.0
2014-Sep-29 10:32N 53°38' W 000°11'0 0.0
2014-Sep-29 09:29N 53°38' W 000°11'0 0.0
2014-Sep-29 08:20N 53°38' W 000°11'0 0.0
2014-Sep-29 07:32N 53°38' W 000°11'0 0.0
2014-Sep-29 06:32N 53°38' W 000°11'0 0.0
2014-Sep-29 05:32N 53°38' W 000°11'0 0.0
2014-Sep-29 04:29N 53°38' W 000°11'0 0.0
2014-Sep-29 03:32N 53°38' W 000°11'0 0.0
2014-Sep-29 02:32N 53°38' W 000°11'0 0.0
2014-Sep-29 01:32N 53°38' W 000°11'0 0.0
2014-Sep-29 00:29N 53°38' W 000°11'0 0.0
2014-Sep-28 23:32N 53°38' W 000°11'0 0.0
2014-Sep-28 22:32N 53°38' W 000°11'0 0.0
2014-Sep-28 21:32N 53°38' W 000°11'0 0.0
2014-Sep-28 20:32N 53°38' W 000°11'0 0.0
2014-Sep-28 19:32N 53°38' W 000°11'0 0.0
2014-Sep-28 18:32N 53°38' W 000°11'0 0.0
2014-Sep-28 17:26N 53°38' W 000°11'0 0.0
2014-Sep-28 16:26N 53°38' W 000°11'0 0.0
2014-Sep-28 15:29N 53°38' W 000°11'0 0.0
2014-Sep-28 14:26N 53°38' W 000°11'0 0.0
2014-Sep-28 13:26N 53°38' W 000°11'0 0.0
2014-Sep-28 12:29N 53°38' W 000°11'0 0.0
2014-Sep-28 11:32N 53°38' W 000°11'0 0.0
2014-Sep-28 10:29N 53°38' W 000°11'0 0.0
2014-Sep-28 09:32N 53°38' W 000°11'0 0.0
2014-Sep-28 08:32N 53°38' W 000°11'0 0.0
2014-Sep-28 07:29N 53°38' W 000°11'0 0.0
2014-Sep-28 06:32N 53°38' W 000°11'0 0.0
2014-Sep-28 05:32N 53°38' W 000°11'0 0.0
2014-Sep-28 04:26N 53°38' W 000°11'0 0.0
2014-Sep-28 03:26N 53°38' W 000°11'0 0.0
2014-Sep-28 02:26N 53°38' W 000°11'0 0.0
2014-Sep-28 01:32N 53°38' W 000°11'0 0.0
2014-Sep-28 00:32N 53°38' W 000°11'0 0.0
2014-Sep-27 23:32N 53°38' W 000°11'0 0.0
2014-Sep-27 22:29N 53°38' W 000°11'0 0.0
2014-Sep-27 21:32N 53°38' W 000°11'0 0.0
2014-Sep-27 20:29N 53°38' W 000°11'0 0.0
2014-Sep-27 19:32N 53°38' W 000°11'0 0.0
2014-Sep-27 18:32N 53°38' W 000°11'0 0.0
2014-Sep-27 17:32N 53°38' W 000°11'0 0.0
2014-Sep-27 16:32N 53°38' W 000°11'0 0.0
2014-Sep-27 15:32N 53°38' W 000°11'0 0.0
2014-Sep-27 14:29N 53°38' W 000°11'0 0.0
2014-Sep-27 13:26N 53°38' W 000°11'0 0.0
2014-Sep-27 12:32N 53°38' W 000°11'0 0.0
2014-Sep-27 11:32N 53°38' W 000°11'0 0.0
2014-Sep-27 10:29N 53°38' W 000°11'0 0.1
2014-Sep-27 09:33N 53°38' W 000°11'3 3.0
2014-Sep-27 08:33N 53°37' W 000°06'9 8.8
2014-Sep-27 07:34N 53°34' E 000°07'9 9.0
2014-Sep-27 06:33N 53°30' E 000°21'10 9.7
2014-Sep-27 05:33N 53°23' E 000°33'10 9.8
2014-Sep-27 04:31N 53°15' E 000°43'1510.4
2014-Sep-27 03:07N 53°06' E 001°02'611.2
2014-Sep-27 02:33N 53°04' E 001°11'1111.2
2014-Sep-27 01:34N 52°58' E 001°27'1111.1
2014-Sep-27 00:34N 52°51' E 001°41'9 9.3
2014-Sep-26 23:33N 52°45' E 001°54'7 6.6
2014-Sep-26 22:33N 52°39' E 001°55'5 5.5
2014-Sep-26 21:33N 52°33' E 001°53'5 5.4
2014-Sep-26 20:33N 52°28' E 001°51'6 6.0
2014-Sep-26 19:33N 52°22' E 001°49'7 7.5
2014-Sep-26 18:33N 52°15' E 001°46'9 8.6
2014-Sep-26 17:33N 52°07' E 001°43'8 8.4
2014-Sep-26 16:33N 51°60' E 001°36'9 9.1
2014-Sep-26 15:33N 51°56' E 001°22'8 8.0
2014-Sep-26 14:33N 52°00' E 001°12'2 2.2
2014-Sep-26 13:29N 52°02' E 001°09'0 0.0
2014-Sep-26 12:32N 52°02' E 001°09'0 0.0
2014-Sep-26 11:32N 52°02' E 001°09'0 0.0
2014-Sep-26 10:32N 52°02' E 001°09'0 0.0
2014-Sep-26 09:32N 52°02' E 001°09'0 0.0
2014-Sep-26 08:32N 52°02' E 001°09'0 0.0
2014-Sep-26 07:20N 52°02' E 001°09'0 0.0
2014-Sep-26 06:08N 52°02' E 001°09'1 2.2
2014-Sep-26 05:33N 52°01' E 001°10'7 7.1
2014-Sep-26 04:33N 51°56' E 001°19'8 7.7
2014-Sep-26 03:33N 51°57' E 001°31'6 6.2
2014-Sep-26 02:33N 52°02' E 001°38'7 7.2
2014-Sep-26 01:33N 52°03' E 001°49'8 8.2
2014-Sep-26 00:34N 52°03' E 002°03'58 9.2
2014-Sep-25 18:16N 52°03' E 003°36'7 9.2
2014-Sep-25 17:33N 52°03' E 003°47'7 7.1
2014-Sep-25 16:34N 52°02' E 003°58'9 9.2
2014-Sep-25 15:33N 51°57' E 004°11'7 7.2
2014-Sep-25 14:33N 51°54' E 004°22'2 2.0
2014-Sep-25 13:33N 51°54' E 004°25'0 0.0
2014-Sep-25 12:30N 51°54' E 004°25'0 0.0
2014-Sep-25 11:33N 51°54' E 004°25'0 0.0
2014-Sep-25 10:33N 51°54' E 004°25'0 0.0
2014-Sep-25 09:33N 51°54' E 004°25'0 0.0
2014-Sep-25 08:33N 51°54' E 004°25'0 0.0
2014-Sep-25 07:33N 51°54' E 004°25'0 0.0
2014-Sep-25 06:33N 51°54' E 004°25'0 0.0
2014-Sep-25 05:33N 51°54' E 004°25'0 0.0
2014-Sep-25 04:33N 51°54' E 004°25'0 0.0
2014-Sep-25 03:33N 51°54' E 004°25'0 0.0
2014-Sep-25 02:33N 51°54' E 004°25'0 0.0
2014-Sep-25 01:33N 51°54' E 004°25'0 0.0
2014-Sep-25 00:33N 51°54' E 004°25'0 0.0
2014-Sep-24 23:33N 51°54' E 004°25'0 0.0
2014-Sep-24 22:33N 51°54' E 004°25'0 0.0
2014-Sep-24 21:33N 51°54' E 004°25'0 0.2
2014-Sep-24 20:33N 51°55' E 004°25'163163.4
2014-Sep-24 19:33N 51°55' E 000°00'163163.3
2014-Sep-24 18:33N 51°55' E 004°25'0 0.0
2014-Sep-24 17:33N 51°55' E 004°25'0 0.0
2014-Sep-24 16:33N 51°55' E 004°25'0 0.0
2014-Sep-24 15:33N 51°55' E 004°25'0 0.0
2014-Sep-24 14:33N 51°55' E 004°25'7 6.8
2014-Sep-24 13:33N 51°55' E 004°14'1010.2
2014-Sep-24 12:33N 51°60' E 003°59'10 9.7
2014-Sep-24 11:33N 52°02' E 003°44'79 9.8
2014-Sep-24 03:31N 52°44' E 001°55'8 8.2
2014-Sep-24 02:33N 52°49' E 001°45'8 7.7
2014-Sep-24 01:33N 52°54' E 001°35'8 7.6
2014-Sep-24 00:33N 52°59' E 001°25'8 8.2
2014-Sep-23 23:33N 53°03' E 001°13'  

Dump ship's entire track history